Time;durP1;ratioP1;P1;durP2;ratioP2;P2;SDS_P1;SDS_P2;PMS_P1;PMS_P2;Temp;Humidity;BMP_temperature;BMP_pressure;BME280_temperature;BME280_humidity;BME280_pressure;Samples;Min_cycle;Max_cycle;Signal;HPM_P1;HPM_P2
2024/04/04 00:02:04;;;;;;;9.55;1.80;;;;;;;;;;5089632;28;20772;-71
2024/04/04 00:04:30;;;;;;;11.82;1.95;;;;;;;;;;5088403;28;20283;-72
2024/04/04 00:06:56;;;;;;;14.05;1.83;;;;;;;;;;5087930;28;20206;-72
2024/04/04 00:09:21;;;;;;;9.15;2.42;;;;;;;;;;5090485;28;20212;-72
2024/04/04 00:11:47;;;;;;;8.23;1.73;;;;;;;;;;5090514;28;20261;-72
2024/04/04 00:14:12;;;;;;;7.90;1.88;;;;;;;;;;5082198;28;20281;-71
2024/04/04 00:16:38;;;;;;;9.57;1.63;;;;;;;;;;5088254;28;20505;-72
2024/04/04 00:19:04;;;;;;;9.25;2.00;;;;;;;;;;5079139;28;20628;-72
2024/04/04 00:21:30;;;;;;;12.07;1.77;;;;;;;;;;5077230;28;20191;-72
2024/04/04 00:23:57;;;;;;;9.35;1.83;;;;;;;;;;5088214;28;20192;-72
2024/04/04 00:26:23;;;;;;;15.32;1.85;;;;;;;;;;5076014;28;20208;-72
2024/04/04 00:28:49;;;;;;;10.65;1.70;;;;;;;;;;5076558;28;20195;-72
2024/04/04 00:31:14;;;;;;;10.60;1.80;;;;;;;;;;5070061;28;20260;-72
2024/04/04 00:33:40;;;;;;;6.60;1.40;;;;;;;;;;5087186;28;20651;-72
2024/04/04 00:36:05;;;;;;;8.60;1.48;;;;;;;;;;5089943;28;20271;-71
2024/04/04 00:38:31;;;;;;;9.45;1.42;;;;;;;;;;5073872;28;20253;-72
2024/04/04 00:40:56;;;;;;;7.75;1.58;;;;;;;;;;5081024;28;20192;-72
2024/04/04 00:43:22;;;;;;;8.43;1.88;;;;;;;;;;5088740;28;20261;-71
2024/04/04 00:45:47;;;;;;;9.70;1.80;;;;;;;;;;5089721;28;20574;-73
2024/04/04 00:48:13;;;;;;;8.60;1.88;;;;;;;;;;5089986;28;20301;-72
2024/04/04 00:50:41;;;;;;;6.53;1.55;;;;;;;;;;5082996;28;20275;-70
2024/04/04 00:53:08;;;;;;;10.10;2.00;;;;;;;;;;5078748;28;20612;-71
2024/04/04 00:55:33;;;;;;;8.55;1.80;;;;;;;;;;5073413;28;20195;-72
2024/04/04 00:57:59;;;;;;;11.10;1.58;;;;;;;;;;5080464;28;20192;-72
2024/04/04 01:00:24;;;;;;;13.50;2.63;;;;;;;;;;5075305;28;20592;-72
2024/04/04 01:02:53;;;;;;;7.18;1.50;;;;;;;;;;5079006;28;20188;-73
2024/04/04 01:05:18;;;;;;;10.32;2.35;;;;;;;;;;5082167;28;20215;-73
2024/04/04 01:07:48;;;;;;;9.18;2.42;;;;;;;;;;5079934;28;20264;-72
2024/04/04 01:10:14;;;;;;;8.23;1.40;;;;;;;;;;5081794;28;20184;-71
2024/04/04 01:12:40;;;;;;;13.02;1.70;;;;;;;;;;5074141;28;20196;-72
2024/04/04 01:15:06;;;;;;;5.68;1.23;;;;;;;;;;5081947;28;20188;-72
2024/04/04 01:17:32;;;;;;;4.43;1.20;;;;;;;;;;5077927;28;20181;-71
2024/04/04 01:19:58;;;;;;;8.55;1.45;;;;;;;;;;5087300;28;20212;-71
2024/04/04 01:22:23;;;;;;;9.32;1.35;;;;;;;;;;5087961;28;20183;-71
2024/04/04 01:24:49;;;;;;;7.10;1.42;;;;;;;;;;5070481;28;20286;-71
2024/04/04 01:27:14;;;;;;;9.02;1.55;;;;;;;;;;5079314;28;20202;-72
2024/04/04 01:29:40;;;;;;;7.28;1.65;;;;;;;;;;5078654;28;20591;-72
2024/04/04 01:32:05;;;;;;;5.90;1.75;;;;;;;;;;5080684;28;20188;-72
2024/04/04 01:34:31;;;;;;;9.20;1.73;;;;;;;;;;5078025;28;20195;-72
2024/04/04 01:36:57;;;;;;;7.57;1.60;;;;;;;;;;5087546;28;20187;-72
2024/04/04 01:39:22;;;;;;;6.30;1.20;;;;;;;;;;5079980;28;20636;-71
2024/04/04 01:41:47;;;;;;;7.50;1.13;;;;;;;;;;5077425;28;20192;-72
2024/04/04 01:44:13;;;;;;;13.18;1.65;;;;;;;;;;5082218;28;20200;-72
2024/04/04 01:46:40;;;;;;;7.10;1.55;;;;;;;;;;5074836;28;20655;-72
2024/04/04 01:49:05;;;;;;;8.43;1.52;;;;;;;;;;5081816;28;20184;-72
2024/04/04 01:51:31;;;;;;;7.10;1.77;;;;;;;;;;5075112;28;20204;-72
2024/04/04 01:53:57;;;;;;;10.68;1.45;;;;;;;;;;5069774;28;20271;-72
2024/04/04 01:56:22;;;;;;;7.90;1.52;;;;;;;;;;5081888;28;20181;-72
2024/04/04 01:58:48;;;;;;;8.88;1.25;;;;;;;;;;5087988;28;20191;-72
2024/04/04 02:01:13;;;;;;;7.43;1.52;;;;;;;;;;5081725;28;20195;-72
2024/04/04 02:03:38;;;;;;;6.65;1.27;;;;;;;;;;5087019;28;20310;-72
2024/04/04 02:06:04;;;;;;;8.20;2.10;;;;;;;;;;5076736;28;20231;-72
2024/04/04 02:08:29;;;;;;;5.35;1.17;;;;;;;;;;5082948;28;20539;-72
2024/04/04 02:10:55;;;;;;;9.77;1.20;;;;;;;;;;5080892;28;20198;-72
2024/04/04 02:13:21;;;;;;;5.88;1.42;;;;;;;;;;5083667;28;20180;-72
2024/04/04 02:15:47;;;;;;;9.90;2.13;;;;;;;;;;5076695;28;20189;-72
2024/04/04 02:18:15;;;;;;;11.68;1.50;;;;;;;;;;5075047;28;20275;-72
2024/04/04 02:20:41;;;;;;;7.95;1.38;;;;;;;;;;5083346;28;20191;-72
2024/04/04 02:23:06;;;;;;;13.10;1.83;;;;;;;;;;5083882;28;20192;-72
2024/04/04 02:25:32;;;;;;;7.43;1.55;;;;;;;;;;5078932;28;20223;-72
2024/04/04 02:27:57;;;;;;;10.73;1.88;;;;;;;;;;5083469;28;20237;-72
2024/04/04 02:30:23;;;;;;;5.95;1.50;;;;;;;;;;5080060;28;20516;-72
2024/04/04 02:32:49;;;;;;;7.80;1.38;;;;;;;;;;5086515;28;20191;-72
2024/04/04 02:35:15;;;;;;;7.63;1.52;;;;;;;;;;5080357;28;20176;-72
2024/04/04 02:37:41;;;;;;;9.45;1.48;;;;;;;;;;5080712;28;20227;-72
2024/04/04 02:40:07;;;;;;;7.68;1.70;;;;;;;;;;5083931;28;20200;-72
2024/04/04 02:42:33;;;;;;;7.97;1.40;;;;;;;;;;5089179;28;20196;-72
2024/04/04 02:44:58;;;;;;;4.78;1.50;;;;;;;;;;5088259;28;20291;-72
2024/04/04 02:47:23;;;;;;;6.60;1.70;;;;;;;;;;5082835;28;20633;-72
2024/04/04 02:49:54;;;;;;;6.32;1.67;;;;;;;;;;5090325;28;20198;-71
2024/04/04 02:52:19;;;;;;;8.77;1.63;;;;;;;;;;5085811;28;20604;-71
2024/04/04 02:54:45;;;;;;;8.05;1.80;;;;;;;;;;5081740;28;20221;-71
2024/04/04 02:57:10;;;;;;;9.48;1.70;;;;;;;;;;5086427;28;20192;-71
2024/04/04 02:59:35;;;;;;;7.72;1.65;;;;;;;;;;5089621;28;20191;-70
2024/04/04 03:02:01;;;;;;;7.68;1.60;;;;;;;;;;5082065;28;20193;-72
2024/04/04 03:04:26;;;;;;;7.45;1.77;;;;;;;;;;5063295;28;20213;-72
2024/04/04 03:06:52;;;;;;;6.30;1.30;;;;;;;;;;5078244;28;20248;-71
2024/04/04 03:09:17;;;;;;;7.85;1.50;;;;;;;;;;5090914;28;20568;-72
2024/04/04 03:11:42;;;;;;;7.30;1.02;;;;;;;;;;5074290;28;20563;-71
2024/04/04 03:14:08;;;;;;;7.57;1.10;;;;;;;;;;5087724;28;20263;-71
2024/04/04 03:16:34;;;;;;;9.60;1.50;;;;;;;;;;5091696;28;20208;-70
2024/04/04 03:18:59;;;;;;;10.93;1.50;;;;;;;;;;5073217;28;20272;-71
2024/04/04 03:21:24;;;;;;;10.00;1.40;;;;;;;;;;5091188;28;20284;-72
2024/04/04 03:23:50;;;;;;;8.35;1.55;;;;;;;;;;5089908;28;20229;-71
2024/04/04 03:26:16;;;;;;;9.02;1.70;;;;;;;;;;5088765;28;20238;-71
2024/04/04 03:28:41;;;;;;;8.10;1.77;;;;;;;;;;5084996;28;20715;-71
2024/04/04 03:31:08;;;;;;;12.50;2.00;;;;;;;;;;5089852;28;20211;-72
2024/04/04 03:33:33;;;;;;;7.68;1.73;;;;;;;;;;5090796;28;20616;-72
2024/04/04 03:36:02;;;;;;;8.35;2.17;;;;;;;;;;5090062;28;20188;-72
2024/04/04 03:38:28;;;;;;;8.35;2.05;;;;;;;;;;5075489;28;20224;-72
2024/04/04 03:40:54;;;;;;;5.93;1.80;;;;;;;;;;5087617;28;20184;-72
2024/04/04 03:43:19;;;;;;;10.00;2.00;;;;;;;;;;5077507;28;20288;-72
2024/04/04 03:45:45;;;;;;;8.10;2.63;;;;;;;;;;5083737;28;20371;-72
2024/04/04 03:48:10;;;;;;;7.63;2.47;;;;;;;;;;5058174;28;20181;-72
2024/04/04 03:50:36;;;;;;;8.13;2.08;;;;;;;;;;5078434;28;20200;-72
2024/04/04 03:53:01;;;;;;;9.65;1.45;;;;;;;;;;5078613;28;20180;-72
2024/04/04 03:55:26;;;;;;;10.00;1.73;;;;;;;;;;5071444;28;20185;-72
2024/04/04 03:57:52;;;;;;;4.63;1.02;;;;;;;;;;5090377;28;20264;-72
2024/04/04 04:00:17;;;;;;;13.32;2.05;;;;;;;;;;5085041;28;20226;-72
2024/04/04 04:02:43;;;;;;;14.82;2.40;;;;;;;;;;5076045;28;20378;-72
2024/04/04 04:05:09;;;;;;;8.40;1.80;;;;;;;;;;5086799;28;20227;-72
2024/04/04 04:07:34;;;;;;;9.60;1.33;;;;;;;;;;5083168;28;20690;-72
2024/04/04 04:09:59;;;;;;;7.47;1.33;;;;;;;;;;5089799;28;20188;-72
2024/04/04 04:12:25;;;;;;;4.85;1.92;;;;;;;;;;5086281;28;20219;-72
2024/04/04 04:14:50;;;;;;;9.88;1.90;;;;;;;;;;5077118;28;20187;-72
2024/04/04 04:17:16;;;;;;;6.30;1.63;;;;;;;;;;5082075;28;20210;-72
2024/04/04 04:19:41;;;;;;;5.30;2.20;;;;;;;;;;5084176;28;20238;-72
2024/04/04 04:22:06;;;;;;;9.75;2.03;;;;;;;;;;5086759;28;20275;-71
2024/04/04 04:24:32;;;;;;;7.22;1.70;;;;;;;;;;5089441;28;20304;-72
2024/04/04 04:26:58;;;;;;;7.93;1.92;;;;;;;;;;5077433;28;20296;-72
2024/04/04 04:29:23;;;;;;;7.97;2.15;;;;;;;;;;5084023;28;20241;-72
2024/04/04 04:31:54;;;;;;;9.07;1.98;;;;;;;;;;5089270;28;20181;-72
2024/04/04 04:34:20;;;;;;;11.63;1.63;;;;;;;;;;5089131;28;20196;-72
2024/04/04 04:37:15;;;;;;;10.02;2.00;;;;;;;;;;5071789;28;20660;-72
2024/04/04 04:39:40;;;;;;;5.97;2.00;;;;;;;;;;5059575;28;20224;-72
2024/04/04 04:42:05;;;;;;;7.30;2.05;;;;;;;;;;5059537;28;20230;-71
2024/04/04 04:44:31;;;;;;;7.75;1.75;;;;;;;;;;5056157;28;20193;-72
2024/04/04 04:46:58;;;;;;;8.73;1.73;;;;;;;;;;5059951;28;20193;-72
2024/04/04 04:49:24;;;;;;;7.45;2.00;;;;;;;;;;5069152;28;20189;-72
2024/04/04 04:51:49;;;;;;;12.15;2.13;;;;;;;;;;5055921;28;20574;-73
2024/04/04 04:54:14;;;;;;;10.68;2.13;;;;;;;;;;5067901;28;20238;-73
2024/04/04 04:56:40;;;;;;;9.48;2.28;;;;;;;;;;5063906;28;20645;-73
2024/04/04 04:59:06;;;;;;;7.45;2.08;;;;;;;;;;5066237;28;20561;-73
2024/04/04 05:01:31;;;;;;;7.00;2.08;;;;;;;;;;5068434;28;20716;-73
2024/04/04 05:03:56;;;;;;;6.10;1.90;;;;;;;;;;5066589;28;20189;-74
2024/04/04 05:06:22;;;;;;;8.95;2.22;;;;;;;;;;5068875;28;20227;-76
2024/04/04 05:08:49;;;;;;;9.63;2.22;;;;;;;;;;5046829;28;20192;-76
2024/04/04 05:11:15;;;;;;;7.25;2.30;;;;;;;;;;5062384;28;20193;-77
2024/04/04 05:13:41;;;;;;;9.55;2.10;;;;;;;;;;5060199;28;20181;-76
2024/04/04 05:16:07;;;;;;;7.25;2.30;;;;;;;;;;5061879;28;20185;-77
2024/04/04 05:18:32;;;;;;;6.53;2.60;;;;;;;;;;5064489;28;20216;-77
2024/04/04 05:21:00;;;;;;;8.27;2.60;;;;;;;;;;5068678;28;20195;-76
2024/04/04 05:23:25;;;;;;;5.45;2.42;;;;;;;;;;5064544;28;20188;-76
2024/04/04 05:25:52;;;;;;;7.20;2.88;;;;;;;;;;5067139;28;20261;-76
2024/04/04 05:28:17;;;;;;;8.48;2.72;;;;;;;;;;5066595;28;20196;-77
2024/04/04 05:30:43;;;;;;;7.22;3.33;;;;;;;;;;5065855;28;20193;-77
2024/04/04 05:33:08;;;;;;;6.70;2.90;;;;;;;;;;5055237;28;20267;-76
2024/04/04 05:35:33;;;;;;;6.80;3.38;;;;;;;;;;5047102;28;20184;-77
2024/04/04 05:37:59;;;;;;;7.47;3.47;;;;;;;;;;5061080;28;20317;-76
2024/04/04 05:40:24;;;;;;;6.25;3.72;;;;;;;;;;5082832;28;20674;-76
2024/04/04 05:42:50;;;;;;;8.27;3.60;;;;;;;;;;5080806;28;20188;-76
2024/04/04 05:45:16;;;;;;;7.63;3.65;;;;;;;;;;5070504;28;20398;-76
2024/04/04 05:47:41;;;;;;;6.32;3.80;;;;;;;;;;5077269;28;20180;-76
2024/04/04 05:50:09;;;;;;;9.68;3.83;;;;;;;;;;5080704;28;20241;-76
2024/04/04 05:52:35;;;;;;;6.07;2.85;;;;;;;;;;5084676;28;20203;-77
2024/04/04 05:55:00;;;;;;;10.27;4.28;;;;;;;;;;5085503;28;20523;-78
2024/04/04 05:57:26;;;;;;;7.25;4.45;;;;;;;;;;5078307;28;20192;-77
2024/04/04 05:59:53;;;;;;;7.72;4.57;;;;;;;;;;5085257;28;20725;-76
2024/04/04 06:02:19;;;;;;;8.65;5.05;;;;;;;;;;5085621;28;20184;-77
2024/04/04 06:04:44;;;;;;;8.27;5.22;;;;;;;;;;5065732;28;20278;-77
2024/04/04 06:07:11;;;;;;;7.97;5.50;;;;;;;;;;5057275;28;20216;-78
2024/04/04 06:09:36;;;;;;;12.02;5.60;;;;;;;;;;5073633;28;20568;-76
2024/04/04 06:12:02;;;;;;;10.38;5.90;;;;;;;;;;5078941;28;20246;-77
2024/04/04 06:14:27;;;;;;;10.88;6.30;;;;;;;;;;5080986;28;20192;-76
2024/04/04 06:16:53;;;;;;;11.38;5.70;;;;;;;;;;5076902;28;20317;-77
2024/04/04 06:19:18;;;;;;;9.20;5.82;;;;;;;;;;5085069;28;20479;-76
2024/04/04 06:21:44;;;;;;;12.18;5.95;;;;;;;;;;5091997;28;20271;-76
2024/04/04 06:24:09;;;;;;;9.77;6.07;;;;;;;;;;5090703;28;20184;-75
2024/04/04 06:26:35;;;;;;;12.43;7.10;;;;;;;;;;5092218;28;20216;-76
2024/04/04 06:29:00;;;;;;;10.57;7.53;;;;;;;;;;5072130;28;20193;-76
2024/04/04 06:31:26;;;;;;;8.88;6.63;;;;;;;;;;5069284;28;20270;-76
2024/04/04 06:33:51;;;;;;;14.85;7.15;;;;;;;;;;5070594;28;20207;-76
2024/04/04 06:36:17;;;;;;;12.52;5.85;;;;;;;;;;5079436;28;20194;-76
2024/04/04 06:38:43;;;;;;;10.45;6.60;;;;;;;;;;5084323;28;20657;-77
2024/04/04 06:41:09;;;;;;;14.38;5.50;;;;;;;;;;5061918;28;20188;-75
2024/04/04 06:43:34;;;;;;;9.40;5.82;;;;;;;;;;5071618;28;20191;-75
2024/04/04 06:46:00;;;;;;;9.00;5.88;;;;;;;;;;5071833;28;20268;-75
2024/04/04 06:48:25;;;;;;;10.43;5.43;;;;;;;;;;5058166;28;20180;-76
2024/04/04 06:50:51;;;;;;;10.30;5.13;;;;;;;;;;5080455;28;20188;-75
2024/04/04 06:53:16;;;;;;;10.15;4.85;;;;;;;;;;5088379;28;20290;-75
2024/04/04 06:55:42;;;;;;;7.93;4.45;;;;;;;;;;5087041;28;20271;-75
2024/04/04 06:58:07;;;;;;;8.48;4.40;;;;;;;;;;5072017;28;20315;-75
2024/04/04 07:00:33;;;;;;;9.77;4.40;;;;;;;;;;5087406;28;20196;-75
2024/04/04 07:02:58;;;;;;;10.68;5.05;;;;;;;;;;5087887;28;20627;-78
2024/04/04 07:05:24;;;;;;;8.98;4.15;;;;;;;;;;5055238;28;20212;-76
2024/04/04 07:07:50;;;;;;;8.82;4.25;;;;;;;;;;5077493;28;20191;-76
2024/04/04 07:10:16;;;;;;;7.93;4.15;;;;;;;;;;5076608;28;20224;-77
2024/04/04 07:12:41;;;;;;;8.88;4.20;;;;;;;;;;5089408;28;20226;-76
2024/04/04 07:15:07;;;;;;;8.27;3.42;;;;;;;;;;5071556;28;20184;-76
2024/04/04 07:17:33;;;;;;;6.82;3.22;;;;;;;;;;5078481;28;20522;-78
2024/04/04 07:19:59;;;;;;;8.85;3.95;;;;;;;;;;5075114;28;20538;-76
2024/04/04 07:22:24;;;;;;;8.05;3.15;;;;;;;;;;5089628;28;20306;-77
2024/04/04 07:24:50;;;;;;;6.22;3.20;;;;;;;;;;5086457;28;20212;-77
2024/04/04 07:27:16;;;;;;;7.57;3.25;;;;;;;;;;5066957;28;20195;-76
2024/04/04 07:29:42;;;;;;;6.07;2.83;;;;;;;;;;5084631;28;20279;-77
2024/04/04 07:32:08;;;;;;;3.83;2.38;;;;;;;;;;5066478;28;20200;-77
2024/04/04 07:34:36;;;;;;;4.97;2.08;;;;;;;;;;5069648;28;20245;-77
2024/04/04 07:37:02;;;;;;;5.07;2.03;;;;;;;;;;5067085;28;20665;-77
2024/04/04 07:39:30;;;;;;;3.80;1.70;;;;;;;;;;5082724;28;20250;-77
2024/04/04 07:41:56;;;;;;;5.22;2.28;;;;;;;;;;5058667;28;20176;-77
2024/04/04 07:44:22;;;;;;;3.80;2.70;;;;;;;;;;5072554;28;20241;-77
2024/04/04 07:46:51;;;;;;;8.25;3.10;;;;;;;;;;5085605;28;20211;-77
2024/04/04 07:49:17;;;;;;;7.45;2.90;;;;;;;;;;5071946;28;20192;-77
2024/04/04 07:51:42;;;;;;;6.55;3.42;;;;;;;;;;5062770;28;20177;-76
2024/04/04 07:54:08;;;;;;;7.88;3.10;;;;;;;;;;5082633;28;20258;-77
2024/04/04 07:56:33;;;;;;;7.07;4.20;;;;;;;;;;5071147;28;20181;-75
2024/04/04 07:58:59;;;;;;;9.25;4.30;;;;;;;;;;5083335;28;20208;-75
2024/04/04 08:01:24;;;;;;;8.10;3.60;;;;;;;;;;5087404;28;20191;-76
2024/04/04 08:03:50;;;;;;;12.10;3.83;;;;;;;;;;5084739;28;20666;-75
2024/04/04 08:06:16;;;;;;;12.60;4.10;;;;;;;;;;5090073;28;20274;-75
2024/04/04 08:08:42;;;;;;;10.95;3.90;;;;;;;;;;5076602;28;20192;-75
2024/04/04 08:11:11;;;;;;;10.90;4.07;;;;;;;;;;5087803;28;20204;-77
2024/04/04 08:13:37;;;;;;;11.85;4.15;;;;;;;;;;5087993;28;20191;-77
2024/04/04 08:16:04;;;;;;;11.05;3.92;;;;;;;;;;5085068;28;20226;-77
2024/04/04 08:18:29;;;;;;;9.70;4.00;;;;;;;;;;5069692;28;20218;-77
2024/04/04 08:20:55;;;;;;;8.75;3.85;;;;;;;;;;5079635;28;20192;-77
2024/04/04 08:23:20;;;;;;;10.25;3.58;;;;;;;;;;5062253;28;20291;-77
2024/04/04 08:25:53;;;;;;;6.53;3.38;;;;;;;;;;5081339;28;20243;-76
2024/04/04 08:28:19;;;;;;;10.15;3.20;;;;;;;;;;5081268;28;20196;-76
2024/04/04 08:30:44;;;;;;;16.02;4.50;;;;;;;;;;5084237;28;20188;-76
2024/04/04 08:33:10;;;;;;;6.70;3.05;;;;;;;;;;5085783;28;20176;-75
2024/04/04 08:35:35;;;;;;;7.45;3.17;;;;;;;;;;5080969;28;20237;-76
2024/04/04 08:38:00;;;;;;;4.25;2.75;;;;;;;;;;5082294;28;20696;-76
2024/04/04 08:40:27;;;;;;;3.78;1.80;;;;;;;;;;5075918;28;20184;-76
2024/04/04 08:42:52;;;;;;;7.32;1.98;;;;;;;;;;5085543;28;20210;-75
2024/04/04 08:45:19;;;;;;;4.70;1.98;;;;;;;;;;5077042;28;20204;-74
2024/04/04 08:47:45;;;;;;;6.65;2.95;;;;;;;;;;5087715;28;20188;-74
2024/04/04 08:50:12;;;;;;;8.00;3.25;;;;;;;;;;5084216;28;20198;-75
2024/04/04 08:52:38;;;;;;;8.95;3.10;;;;;;;;;;5084047;28;20188;-74
2024/04/04 08:55:04;;;;;;;10.70;3.75;;;;;;;;;;5082806;28;20191;-74
2024/04/04 08:57:33;;;;;;;8.15;2.90;;;;;;;;;;5079657;28;20196;-73
2024/04/04 08:59:59;;;;;;;9.05;3.17;;;;;;;;;;5083523;28;20215;-73
2024/04/04 09:02:26;;;;;;;8.20;3.33;;;;;;;;;;5080385;28;20197;-74
2024/04/04 09:05:06;;;;;;;10.82;3.72;;;;;;;;;;5083620;28;20251;-73
2024/04/04 09:07:36;;;;;;;10.57;4.10;;;;;;;;;;5082816;28;20188;-73
2024/04/04 09:10:03;;;;;;;11.10;3.70;;;;;;;;;;5059089;28;20275;-73
2024/04/04 09:12:29;;;;;;;10.35;3.55;;;;;;;;;;5082356;28;20546;-74
2024/04/04 09:14:59;;;;;;;5.80;3.47;;;;;;;;;;5087144;28;20259;-76
2024/04/04 09:17:26;;;;;;;7.43;3.92;;;;;;;;;;5065715;28;20215;-76
2024/04/04 09:19:55;;;;;;;10.43;3.85;;;;;;;;;;5083726;28;20207;-76
2024/04/04 09:22:22;;;;;;;7.80;3.90;;;;;;;;;;5086667;28;20626;-75
2024/04/04 09:24:48;;;;;;;11.82;3.92;;;;;;;;;;5083487;28;20716;-75
2024/04/04 09:27:20;;;;;;;13.13;4.15;;;;;;;;;;5081504;28;20246;-76
2024/04/04 09:29:46;;;;;;;7.85;3.65;;;;;;;;;;5068408;28;20631;-75
2024/04/04 09:32:13;;;;;;;11.88;3.88;;;;;;;;;;5070606;28;20258;-75
2024/04/04 09:34:42;;;;;;;9.68;4.13;;;;;;;;;;5082855;28;20719;-74
2024/04/04 09:37:14;;;;;;;7.43;3.58;;;;;;;;;;5074471;28;20188;-74
2024/04/04 09:39:41;;;;;;;14.15;3.97;;;;;;;;;;5084947;28;20236;-74
2024/04/04 09:42:10;;;;;;;10.68;3.42;;;;;;;;;;5076283;28;20234;-73
2024/04/04 09:44:36;;;;;;;11.65;3.53;;;;;;;;;;5086658;28;20253;-72
2024/04/04 09:47:06;;;;;;;9.25;3.58;;;;;;;;;;5081755;28;20298;-73
2024/04/04 09:49:32;;;;;;;10.02;3.20;;;;;;;;;;5084713;28;20188;-72
2024/04/04 09:52:01;;;;;;;12.27;3.28;;;;;;;;;;5078831;28;20276;-72
2024/04/04 09:54:29;;;;;;;9.65;2.92;;;;;;;;;;5084046;28;20195;-74
2024/04/04 09:56:56;;;;;;;3.90;2.40;;;;;;;;;;5083800;28;20184;-74
2024/04/04 09:59:26;;;;;;;6.03;2.53;;;;;;;;;;5086362;28;20687;-73
2024/04/04 10:01:51;;;;;;;7.13;2.47;;;;;;;;;;5079867;28;20267;-73
2024/04/04 10:04:19;;;;;;;5.90;2.17;;;;;;;;;;5082960;28;20274;-73
2024/04/04 10:06:46;;;;;;;7.32;2.60;;;;;;;;;;5077496;28;20212;-74
2024/04/04 10:09:16;;;;;;;6.25;2.58;;;;;;;;;;5079166;28;20203;-72
2024/04/04 10:11:42;;;;;;;7.35;2.58;;;;;;;;;;5074291;28;20179;-72
2024/04/04 10:14:21;;;;;;;4.47;2.10;;;;;;;;;;5086246;28;20665;-73
2024/04/04 10:16:53;;;;;;;5.40;2.42;;;;;;;;;;5077425;28;20794;-73
2024/04/04 10:19:32;;;;;;;5.70;2.40;;;;;;;;;;5076876;28;20481;-72
2024/04/04 10:21:58;;;;;;;6.20;2.60;;;;;;;;;;5053762;28;20200;-71
2024/04/04 10:24:28;;;;;;;5.45;2.00;;;;;;;;;;5075329;28;20196;-70
2024/04/04 10:26:59;;;;;;;3.03;1.90;;;;;;;;;;5079515;28;20230;-72
2024/04/04 10:29:35;;;;;;;3.42;1.48;;;;;;;;;;5078220;28;20180;-72
2024/04/04 10:32:04;;;;;;;3.38;1.15;;;;;;;;;;5079567;28;20578;-70
2024/04/04 10:34:30;;;;;;;5.35;0.90;;;;;;;;;;5068775;28;20617;-72
2024/04/04 10:36:56;;;;;;;4.38;0.82;;;;;;;;;;5079947;28;20181;-73
2024/04/04 10:39:22;;;;;;;1.45;0.50;;;;;;;;;;5074606;28;20243;-70
2024/04/04 10:41:50;;;;;;;3.40;0.63;;;;;;;;;;5079738;28;20215;-71
2024/04/04 10:44:17;;;;;;;2.03;0.47;;;;;;;;;;5076240;28;20671;-72
2024/04/04 10:46:48;;;;;;;1.30;0.40;;;;;;;;;;5083676;28;20749;-69
2024/04/04 10:49:16;;;;;;;1.95;0.60;;;;;;;;;;5060547;28;20216;-71
2024/04/04 10:51:49;;;;;;;1.42;0.40;;;;;;;;;;5076159;28;20271;-71
2024/04/04 10:54:16;;;;;;;2.45;0.52;;;;;;;;;;5082013;28;20184;-72
2024/04/04 10:56:42;;;;;;;2.13;0.80;;;;;;;;;;5075168;28;20650;-72
2024/04/04 10:59:07;;;;;;;3.03;0.90;;;;;;;;;;5073540;28;20236;-74
2024/04/04 11:01:33;;;;;;;3.05;0.85;;;;;;;;;;5077343;28;20652;-76
2024/04/04 11:03:59;;;;;;;4.18;1.13;;;;;;;;;;5073393;28;20235;-77
2024/04/04 11:06:28;;;;;;;2.10;0.70;;;;;;;;;;5089023;28;20204;-75
2024/04/04 11:09:00;;;;;;;4.03;0.70;;;;;;;;;;5061063;28;20194;-75
2024/04/04 11:11:25;;;;;;;3.00;0.80;;;;;;;;;;5075259;28;20701;-75
2024/04/04 11:13:51;;;;;;;3.50;0.90;;;;;;;;;;5080917;28;20197;-74
2024/04/04 11:16:19;;;;;;;2.42;1.00;;;;;;;;;;5086560;28;20190;-75
2024/04/04 11:18:44;;;;;;;1.77;0.85;;;;;;;;;;5087137;28;20687;-74
2024/04/04 11:21:10;;;;;;;2.83;1.05;;;;;;;;;;5058112;28;20191;-74
2024/04/04 11:23:36;;;;;;;5.40;1.30;;;;;;;;;;5070160;28;20185;-74
2024/04/04 11:26:01;;;;;;;3.63;1.20;;;;;;;;;;5081387;28;20216;-73
2024/04/04 11:28:27;;;;;;;3.40;1.23;;;;;;;;;;5082149;28;20400;-72
2024/04/04 11:30:53;;;;;;;3.35;1.13;;;;;;;;;;5082501;28;20631;-73
2024/04/04 11:33:19;;;;;;;3.70;1.20;;;;;;;;;;5076112;28;20195;-72
2024/04/04 11:35:45;;;;;;;3.83;1.33;;;;;;;;;;5088252;28;20192;-72
2024/04/04 11:38:11;;;;;;;4.00;1.25;;;;;;;;;;5082353;28;20315;-73
2024/04/04 11:40:37;;;;;;;3.63;1.30;;;;;;;;;;5079326;28;20377;-72
2024/04/04 11:43:03;;;;;;;5.50;1.13;;;;;;;;;;5090678;28;20184;-71
2024/04/04 11:45:30;;;;;;;4.82;1.27;;;;;;;;;;5089405;28;20652;-71
2024/04/04 11:47:55;;;;;;;6.38;1.38;;;;;;;;;;5090703;28;20200;-72
2024/04/04 11:50:21;;;;;;;5.40;1.27;;;;;;;;;;5072407;28;20889;-71
2024/04/04 11:52:46;;;;;;;6.80;1.50;;;;;;;;;;5087817;28;20234;-71
2024/04/04 11:55:11;;;;;;;1.77;0.90;;;;;;;;;;5077606;28;20220;-70
2024/04/04 11:57:37;;;;;;;4.88;1.10;;;;;;;;;;5075709;28;20216;-71
2024/04/04 12:00:04;;;;;;;6.35;1.10;;;;;;;;;;5082890;28;20585;-71
2024/04/04 12:02:29;;;;;;;4.47;1.00;;;;;;;;;;5083517;28;20213;-70
2024/04/04 12:04:55;;;;;;;4.78;1.42;;;;;;;;;;5078815;28;20240;-70
2024/04/04 12:07:21;;;;;;;4.57;1.10;;;;;;;;;;5087740;28;20185;-70
2024/04/04 12:09:46;;;;;;;5.93;0.93;;;;;;;;;;5076321;28;20196;-70
2024/04/04 12:12:13;;;;;;;5.47;0.93;;;;;;;;;;5087979;28;20233;-70
2024/04/04 12:14:38;;;;;;;3.83;0.93;;;;;;;;;;5079021;28;20668;-70
2024/04/04 12:17:04;;;;;;;5.72;1.05;;;;;;;;;;5078769;28;20188;-70
2024/04/04 12:19:30;;;;;;;3.92;1.08;;;;;;;;;;5078635;28;20545;-70
2024/04/04 12:21:56;;;;;;;7.75;1.00;;;;;;;;;;5074437;28;20276;-69
2024/04/04 12:24:21;;;;;;;8.80;0.98;;;;;;;;;;5076081;28;20585;-69
2024/04/04 12:26:48;;;;;;;3.95;0.65;;;;;;;;;;5072990;28;20223;-70
2024/04/04 12:29:16;;;;;;;5.53;0.90;;;;;;;;;;5068763;28;20192;-69
2024/04/04 12:31:42;;;;;;;4.00;0.93;;;;;;;;;;5083480;28;20276;-70
2024/04/04 12:34:08;;;;;;;5.55;0.90;;;;;;;;;;5080440;28;20726;-70
2024/04/04 12:36:34;;;;;;;6.10;1.10;;;;;;;;;;5079812;28;20217;-70
2024/04/04 12:39:00;;;;;;;5.32;0.82;;;;;;;;;;5087789;28;20234;-70
2024/04/04 12:41:26;;;;;;;4.50;1.00;;;;;;;;;;5080895;28;20310;-69
2024/04/04 12:43:52;;;;;;;6.15;0.82;;;;;;;;;;5077183;28;20188;-69
2024/04/04 12:46:17;;;;;;;6.90;1.10;;;;;;;;;;5077563;28;20294;-70
2024/04/04 12:48:46;;;;;;;4.80;0.90;;;;;;;;;;5079505;28;20558;-69
2024/04/04 12:51:12;;;;;;;3.33;0.85;;;;;;;;;;5088049;28;20228;-71
2024/04/04 12:53:37;;;;;;;8.25;1.10;;;;;;;;;;5088033;28;20369;-70
2024/04/04 12:56:05;;;;;;;5.55;1.02;;;;;;;;;;5080212;28;20208;-70
2024/04/04 12:58:31;;;;;;;7.47;1.13;;;;;;;;;;5083808;28;20189;-70
2024/04/04 13:00:59;;;;;;;7.90;1.25;;;;;;;;;;5081267;28;20200;-70
2024/04/04 13:03:28;;;;;;;7.57;1.13;;;;;;;;;;5070528;28;20581;-70
2024/04/04 13:05:57;;;;;;;10.48;1.70;;;;;;;;;;5079019;28;20255;-70
2024/04/04 13:08:22;;;;;;;11.80;2.00;;;;;;;;;;5085520;28;20195;-70
2024/04/04 13:10:48;;;;;;;7.25;1.48;;;;;;;;;;5081827;28;20192;-71
2024/04/04 13:13:13;;;;;;;10.10;1.60;;;;;;;;;;5083270;28;20206;-71
2024/04/04 13:15:39;;;;;;;8.73;1.40;;;;;;;;;;5074119;28;20181;-71
2024/04/04 13:18:06;;;;;;;7.00;1.60;;;;;;;;;;5089636;28;20207;-72
2024/04/04 13:20:31;;;;;;;5.88;1.52;;;;;;;;;;5086779;28;20253;-69
2024/04/04 13:22:58;;;;;;;11.15;1.70;;;;;;;;;;5088386;28;20635;-71
2024/04/04 13:25:24;;;;;;;10.50;1.70;;;;;;;;;;5080037;28;20344;-71
2024/04/04 13:27:50;;;;;;;8.90;1.40;;;;;;;;;;5083945;28;20260;-71
2024/04/04 13:30:15;;;;;;;12.27;1.80;;;;;;;;;;5082537;28;20640;-71
2024/04/04 13:32:41;;;;;;;8.75;1.23;;;;;;;;;;5079171;28;20239;-70
2024/04/04 13:35:06;;;;;;;6.93;1.92;;;;;;;;;;5086649;28;20176;-71
2024/04/04 13:37:32;;;;;;;9.18;1.60;;;;;;;;;;5087686;28;20614;-71
2024/04/04 13:39:57;;;;;;;9.45;1.85;;;;;;;;;;5058703;28;20278;-71
2024/04/04 13:42:23;;;;;;;8.90;1.65;;;;;;;;;;5070361;28;20506;-70
2024/04/04 13:44:54;;;;;;;10.65;2.13;;;;;;;;;;5072926;28;20538;-69
2024/04/04 13:47:19;;;;;;;10.93;1.60;;;;;;;;;;5077397;28;20527;-70
2024/04/04 13:49:45;;;;;;;11.50;2.10;;;;;;;;;;5076075;28;20195;-71
2024/04/04 13:52:11;;;;;;;8.50;1.90;;;;;;;;;;5084705;28;20176;-70
2024/04/04 13:54:36;;;;;;;9.40;2.05;;;;;;;;;;5081201;28;20283;-70
2024/04/04 13:57:03;;;;;;;9.98;2.17;;;;;;;;;;5082136;28;20183;-69
2024/04/04 13:59:29;;;;;;;14.35;2.60;;;;;;;;;;5083140;28;20229;-69
2024/04/04 14:01:54;;;;;;;8.48;1.90;;;;;;;;;;5072999;28;20188;-69
2024/04/04 14:04:20;;;;;;;11.15;1.85;;;;;;;;;;5076597;28;20191;-70
2024/04/04 14:06:45;;;;;;;9.85;1.83;;;;;;;;;;5068099;28;20224;-68
2024/04/04 14:09:11;;;;;;;17.05;2.60;;;;;;;;;;5075680;28;20191;-71
2024/04/04 14:11:36;;;;;;;10.57;2.00;;;;;;;;;;5072751;28;20218;-71
2024/04/04 14:14:09;;;;;;;12.35;2.10;;;;;;;;;;5087891;28;20195;-71
2024/04/04 14:16:37;;;;;;;10.00;1.88;;;;;;;;;;5087633;28;20206;-71
2024/04/04 14:19:04;;;;;;;11.07;1.88;;;;;;;;;;5068410;28;20224;-70
2024/04/04 14:21:32;;;;;;;10.25;1.98;;;;;;;;;;5082242;28;20562;-71
2024/04/04 14:23:57;;;;;;;6.45;1.73;;;;;;;;;;5072337;28;20191;-71
2024/04/04 14:26:24;;;;;;;11.80;2.00;;;;;;;;;;5084553;28;20739;-71
2024/04/04 14:28:49;;;;;;;11.93;2.25;;;;;;;;;;5078870;28;20314;-69
2024/04/04 14:31:15;;;;;;;6.85;1.65;;;;;;;;;;5063309;28;20275;-69
2024/04/04 14:33:40;;;;;;;11.63;1.70;;;;;;;;;;5067930;28;20224;-70
2024/04/04 14:36:06;;;;;;;9.85;1.58;;;;;;;;;;5086948;28;20187;-70